sensor_id;sensor_type;location;lat;lon;timestamp;temperature;humidity
65985;HTU21D;52748;51.112;5.880;2023-03-01T00:00:50;17.45;53.41
65985;HTU21D;52748;51.112;5.880;2023-03-01T00:03:16;17.46;53.34
65985;HTU21D;52748;51.112;5.880;2023-03-01T00:05:45;17.48;53.31
65985;HTU21D;52748;51.112;5.880;2023-03-01T00:08:11;17.50;53.11
65985;HTU21D;52748;51.112;5.880;2023-03-01T00:10:37;17.46;53.18
65985;HTU21D;52748;51.112;5.880;2023-03-01T00:13:04;17.44;53.30
65985;HTU21D;52748;51.112;5.880;2023-03-01T00:15:31;17.43;53.56
65985;HTU21D;52748;51.112;5.880;2023-03-01T00:17:57;17.41;53.44
65985;HTU21D;52748;51.112;5.880;2023-03-01T00:20:23;17.43;53.41
65985;HTU21D;52748;51.112;5.880;2023-03-01T00:22:49;17.41;53.49
65985;HTU21D;52748;51.112;5.880;2023-03-01T00:25:15;17.40;53.49
65985;HTU21D;52748;51.112;5.880;2023-03-01T00:27:41;17.37;53.35
65985;HTU21D;52748;51.112;5.880;2023-03-01T00:30:08;17.37;53.21
65985;HTU21D;52748;51.112;5.880;2023-03-01T00:32:34;17.37;53.30
65985;HTU21D;52748;51.112;5.880;2023-03-01T00:35:03;17.35;53.11
65985;HTU21D;52748;51.112;5.880;2023-03-01T00:37:29;17.35;53.23
65985;HTU21D;52748;51.112;5.880;2023-03-01T00:39:55;17.33;53.16
65985;HTU21D;52748;51.112;5.880;2023-03-01T00:42:21;17.33;53.11
65985;HTU21D;52748;51.112;5.880;2023-03-01T00:44:47;17.33;53.11
65985;HTU21D;52748;51.112;5.880;2023-03-01T00:47:13;17.31;53.03
65985;HTU21D;52748;51.112;5.880;2023-03-01T00:49:39;17.32;52.98
65985;HTU21D;52748;51.112;5.880;2023-03-01T00:52:05;17.31;53.27
65985;HTU21D;52748;51.112;5.880;2023-03-01T00:54:31;17.29;53.07
65985;HTU21D;52748;51.112;5.880;2023-03-01T00:56:57;17.29;52.98
65985;HTU21D;52748;51.112;5.880;2023-03-01T00:59:23;17.28;53.09
65985;HTU21D;52748;51.112;5.880;2023-03-01T01:01:49;17.29;52.96
65985;HTU21D;52748;51.112;5.880;2023-03-01T01:04:15;17.26;52.94
65985;HTU21D;52748;51.112;5.880;2023-03-01T01:06:44;17.26;52.87
65985;HTU21D;52748;51.112;5.880;2023-03-01T01:09:14;17.25;52.92
65985;HTU21D;52748;51.112;5.880;2023-03-01T01:11:48;17.24;52.95
65985;HTU21D;52748;51.112;5.880;2023-03-01T01:14:15;17.24;52.89
65985;HTU21D;52748;51.112;5.880;2023-03-01T01:16:41;17.25;52.87
65985;HTU21D;52748;51.112;5.880;2023-03-01T01:19:09;17.23;52.92
65985;HTU21D;52748;51.112;5.880;2023-03-01T01:21:35;17.22;53.03
65985;HTU21D;52748;51.112;5.880;2023-03-01T01:24:04;17.22;52.94
65985;HTU21D;52748;51.112;5.880;2023-03-01T01:26:33;17.20;52.87
65985;HTU21D;52748;51.112;5.880;2023-03-01T01:29:01;17.20;53.02
65985;HTU21D;52748;51.112;5.880;2023-03-01T01:31:31;17.20;52.92
65985;HTU21D;52748;51.112;5.880;2023-03-01T01:34:00;17.19;52.74
65985;HTU21D;52748;51.112;5.880;2023-03-01T01:36:26;17.19;52.75
65985;HTU21D;52748;51.112;5.880;2023-03-01T01:38:52;17.19;52.59
65985;HTU21D;52748;51.112;5.880;2023-03-01T01:41:20;17.18;52.56
65985;HTU21D;52748;51.112;5.880;2023-03-01T01:46:34;17.17;52.56
65985;HTU21D;52748;51.112;5.880;2023-03-01T01:49:17;17.16;52.62
65985;HTU21D;52748;51.112;5.880;2023-03-01T01:51:47;17.16;52.54
65985;HTU21D;52748;51.112;5.880;2023-03-01T01:54:22;17.15;52.56
65985;HTU21D;52748;51.112;5.880;2023-03-01T01:56:59;17.14;52.53
65985;HTU21D;52748;51.112;5.880;2023-03-01T01:59:28;17.20;52.43
65985;HTU21D;52748;51.112;5.880;2023-03-01T02:02:00;17.20;52.24
65985;HTU21D;52748;51.112;5.880;2023-03-01T02:04:29;17.22;52.11
65985;HTU21D;52748;51.112;5.880;2023-03-01T02:07:14;17.23;52.04
65985;HTU21D;52748;51.112;5.880;2023-03-01T02:09:45;17.23;51.92
65985;HTU21D;52748;51.112;5.880;2023-03-01T02:12:14;17.18;52.01
65985;HTU21D;52748;51.112;5.880;2023-03-01T02:14:40;17.13;52.03
65985;HTU21D;52748;51.112;5.880;2023-03-01T02:17:06;17.11;52.18
65985;HTU21D;52748;51.112;5.880;2023-03-01T02:22:38;17.09;52.20
65985;HTU21D;52748;51.112;5.880;2023-03-01T02:28:08;17.08;52.25
65985;HTU21D;52748;51.112;5.880;2023-03-01T02:30:36;17.06;52.23
65985;HTU21D;52748;51.112;5.880;2023-03-01T02:33:04;17.04;52.20
65985;HTU21D;52748;51.112;5.880;2023-03-01T02:35:34;17.04;52.17
65985;HTU21D;52748;51.112;5.880;2023-03-01T02:38:06;17.04;52.17
65985;HTU21D;52748;51.112;5.880;2023-03-01T02:40:34;17.03;52.12
65985;HTU21D;52748;51.112;5.880;2023-03-01T02:43:06;17.03;52.17
65985;HTU21D;52748;51.112;5.880;2023-03-01T02:45:34;17.03;52.07
65985;HTU21D;52748;51.112;5.880;2023-03-01T02:48:00;17.07;51.91
65985;HTU21D;52748;51.112;5.880;2023-03-01T02:53:19;17.08;51.72
65985;HTU21D;52748;51.112;5.880;2023-03-01T02:55:48;17.05;51.69
65985;HTU21D;52748;51.112;5.880;2023-03-01T02:58:14;17.03;51.80
65985;HTU21D;52748;51.112;5.880;2023-03-01T03:00:43;17.06;51.68
65985;HTU21D;52748;51.112;5.880;2023-03-01T03:03:16;17.08;51.51
65985;HTU21D;52748;51.112;5.880;2023-03-01T03:05:43;17.08;51.43
65985;HTU21D;52748;51.112;5.880;2023-03-01T03:08:09;17.08;51.43
65985;HTU21D;52748;51.112;5.880;2023-03-01T03:10:39;17.08;51.37
65985;HTU21D;52748;51.112;5.880;2023-03-01T03:13:11;17.07;51.35
65985;HTU21D;52748;51.112;5.880;2023-03-01T03:15:38;17.03;51.43
65985;HTU21D;52748;51.112;5.880;2023-03-01T03:18:12;16.98;51.57
65985;HTU21D;52748;51.112;5.880;2023-03-01T03:20:40;16.96;51.69
65985;HTU21D;52748;51.112;5.880;2023-03-01T03:23:07;16.94;51.82
65985;HTU21D;52748;51.112;5.880;2023-03-01T03:25:33;16.93;51.87
65985;HTU21D;52748;51.112;5.880;2023-03-01T03:28:04;16.93;51.88
65985;HTU21D;52748;51.112;5.880;2023-03-01T03:30:38;16.92;51.91
65985;HTU21D;52748;51.112;5.880;2023-03-01T03:33:08;16.92;51.89
65985;HTU21D;52748;51.112;5.880;2023-03-01T03:35:42;16.91;52.06
65985;HTU21D;52748;51.112;5.880;2023-03-01T03:38:11;16.91;52.07
65985;HTU21D;52748;51.112;5.880;2023-03-01T03:40:44;16.90;52.12
65985;HTU21D;52748;51.112;5.880;2023-03-01T03:43:17;16.95;52.10
65985;HTU21D;52748;51.112;5.880;2023-03-01T03:45:45;16.99;51.98
65985;HTU21D;52748;51.112;5.880;2023-03-01T03:48:12;16.95;51.91
65985;HTU21D;52748;51.112;5.880;2023-03-01T03:50:39;16.93;51.98
65985;HTU21D;52748;51.112;5.880;2023-03-01T03:53:10;16.90;51.90
65985;HTU21D;52748;51.112;5.880;2023-03-01T03:55:39;16.94;51.85
65985;HTU21D;52748;51.112;5.880;2023-03-01T03:58:07;16.94;51.74
65985;HTU21D;52748;51.112;5.880;2023-03-01T04:00:39;16.94;51.62
65985;HTU21D;52748;51.112;5.880;2023-03-01T04:03:07;16.90;51.59
65985;HTU21D;52748;51.112;5.880;2023-03-01T04:05:33;16.88;51.71
65985;HTU21D;52748;51.112;5.880;2023-03-01T04:07:59;16.90;51.64
65985;HTU21D;52748;51.112;5.880;2023-03-01T04:10:36;16.87;51.62
65985;HTU21D;52748;51.112;5.880;2023-03-01T04:13:04;16.85;51.69
65985;HTU21D;52748;51.112;5.880;2023-03-01T04:15:32;16.85;51.63
65985;HTU21D;52748;51.112;5.880;2023-03-01T04:17:59;16.82;51.70
65985;HTU21D;52748;51.112;5.880;2023-03-01T04:20:29;16.82;51.74
65985;HTU21D;52748;51.112;5.880;2023-03-01T04:23:04;16.81;51.69
65985;HTU21D;52748;51.112;5.880;2023-03-01T04:25:47;16.81;51.72
65985;HTU21D;52748;51.112;5.880;2023-03-01T04:28:34;16.78;51.73
65985;HTU21D;52748;51.112;5.880;2023-03-01T04:31:05;16.78;51.86
65985;HTU21D;52748;51.112;5.880;2023-03-01T04:33:50;16.84;51.80
65985;HTU21D;52748;51.112;5.880;2023-03-01T04:36:22;16.80;51.65
65985;HTU21D;52748;51.112;5.880;2023-03-01T04:38:49;16.78;51.59
65985;HTU21D;52748;51.112;5.880;2023-03-01T04:41:18;16.79;51.66
65985;HTU21D;52748;51.112;5.880;2023-03-01T04:43:47;16.77;51.66
65985;HTU21D;52748;51.112;5.880;2023-03-01T04:46:16;16.76;51.65
65985;HTU21D;52748;51.112;5.880;2023-03-01T04:48:44;16.75;51.62
65985;HTU21D;52748;51.112;5.880;2023-03-01T04:51:10;16.74;51.65
65985;HTU21D;52748;51.112;5.880;2023-03-01T04:53:40;16.73;51.66
65985;HTU21D;52748;51.112;5.880;2023-03-01T04:56:06;16.73;51.71
65985;HTU21D;52748;51.112;5.880;2023-03-01T04:58:40;16.73;51.59
65985;HTU21D;52748;51.112;5.880;2023-03-01T05:01:17;16.74;51.53
65985;HTU21D;52748;51.112;5.880;2023-03-01T05:03:48;16.77;51.34
65985;HTU21D;52748;51.112;5.880;2023-03-01T05:06:19;16.79;51.14
65985;HTU21D;52748;51.112;5.880;2023-03-01T05:08:45;16.75;51.17
65985;HTU21D;52748;51.112;5.880;2023-03-01T05:11:14;16.72;51.25
65985;HTU21D;52748;51.112;5.880;2023-03-01T05:13:41;16.70;51.27
65985;HTU21D;52748;51.112;5.880;2023-03-01T05:16:08;16.71;51.26
65985;HTU21D;52748;51.112;5.880;2023-03-01T05:18:37;16.70;51.30
65985;HTU21D;52748;51.112;5.880;2023-03-01T05:21:09;16.67;51.31
65985;HTU21D;52748;51.112;5.880;2023-03-01T05:23:36;16.67;51.33
65985;HTU21D;52748;51.112;5.880;2023-03-01T05:26:04;16.67;51.40
65985;HTU21D;52748;51.112;5.880;2023-03-01T05:28:30;16.66;51.40
65985;HTU21D;52748;51.112;5.880;2023-03-01T05:30:56;16.64;51.38
65985;HTU21D;52748;51.112;5.880;2023-03-01T05:33:23;16.64;51.40
65985;HTU21D;52748;51.112;5.880;2023-03-01T05:35:50;16.64;51.46
65985;HTU21D;52748;51.112;5.880;2023-03-01T05:38:18;16.63;51.46
65985;HTU21D;52748;51.112;5.880;2023-03-01T05:40:46;16.62;51.51
65985;HTU21D;52748;51.112;5.880;2023-03-01T05:43:15;16.63;51.66
65985;HTU21D;52748;51.112;5.880;2023-03-01T05:45:42;16.65;51.72
65985;HTU21D;52748;51.112;5.880;2023-03-01T05:48:09;16.64;51.68
65985;HTU21D;52748;51.112;5.880;2023-03-01T05:50:44;16.65;51.96
65985;HTU21D;52748;51.112;5.880;2023-03-01T05:53:13;16.74;52.06
65985;HTU21D;52748;51.112;5.880;2023-03-01T05:55:40;16.77;52.10
65985;HTU21D;52748;51.112;5.880;2023-03-01T05:58:10;16.75;52.27
65985;HTU21D;52748;51.112;5.880;2023-03-01T06:00:38;16.75;52.43
65985;HTU21D;52748;51.112;5.880;2023-03-01T06:03:05;16.78;52.56
65985;HTU21D;52748;51.112;5.880;2023-03-01T06:05:31;16.79;52.65
65985;HTU21D;52748;51.112;5.880;2023-03-01T06:08:01;16.80;52.66
65985;HTU21D;52748;51.112;5.880;2023-03-01T06:10:27;16.81;52.67
65985;HTU21D;52748;51.112;5.880;2023-03-01T06:12:54;16.84;52.75
65985;HTU21D;52748;51.112;5.880;2023-03-01T06:15:20;16.86;52.78
65985;HTU21D;52748;51.112;5.880;2023-03-01T06:17:46;16.87;52.73
65985;HTU21D;52748;51.112;5.880;2023-03-01T06:20:17;16.88;52.68
65985;HTU21D;52748;51.112;5.880;2023-03-01T06:22:44;16.93;52.56
65985;HTU21D;52748;51.112;5.880;2023-03-01T06:25:15;16.94;52.51
65985;HTU21D;52748;51.112;5.880;2023-03-01T06:27:42;16.94;52.53
65985;HTU21D;52748;51.112;5.880;2023-03-01T06:30:09;16.93;52.69
65985;HTU21D;52748;51.112;5.880;2023-03-01T06:32:37;16.95;52.77
65985;HTU21D;52748;51.112;5.880;2023-03-01T06:35:04;17.00;53.46
65985;HTU21D;52748;51.112;5.880;2023-03-01T06:37:30;17.06;53.62
65985;HTU21D;52748;51.112;5.880;2023-03-01T06:39:56;17.08;52.72
65985;HTU21D;52748;51.112;5.880;2023-03-01T06:42:22;17.07;51.42
65985;HTU21D;52748;51.112;5.880;2023-03-01T06:44:48;17.08;52.52
65985;HTU21D;52748;51.112;5.880;2023-03-01T06:47:14;17.07;50.11
65985;HTU21D;52748;51.112;5.880;2023-03-01T06:49:40;17.09;51.88
65985;HTU21D;52748;51.112;5.880;2023-03-01T06:52:06;17.08;52.37
65985;HTU21D;52748;51.112;5.880;2023-03-01T06:54:32;17.11;53.82
65985;HTU21D;52748;51.112;5.880;2023-03-01T06:56:58;17.13;54.78
65985;HTU21D;52748;51.112;5.880;2023-03-01T06:59:24;17.16;55.18
65985;HTU21D;52748;51.112;5.880;2023-03-01T07:01:50;17.21;55.39
65985;HTU21D;52748;51.112;5.880;2023-03-01T07:04:16;17.24;55.05
65985;HTU21D;52748;51.112;5.880;2023-03-01T07:06:42;17.25;55.22
65985;HTU21D;52748;51.112;5.880;2023-03-01T07:09:08;17.24;54.92
65985;HTU21D;52748;51.112;5.880;2023-03-01T07:11:33;17.16;51.24
65985;HTU21D;52748;51.112;5.880;2023-03-01T07:13:59;17.25;53.31
65985;HTU21D;52748;51.112;5.880;2023-03-01T07:16:25;17.25;52.56
65985;HTU21D;52748;51.112;5.880;2023-03-01T07:18:51;17.26;52.80
65985;HTU21D;52748;51.112;5.880;2023-03-01T07:21:17;17.29;52.19
65985;HTU21D;52748;51.112;5.880;2023-03-01T07:23:43;17.31;52.72
65985;HTU21D;52748;51.112;5.880;2023-03-01T07:26:09;17.32;52.83
65985;HTU21D;52748;51.112;5.880;2023-03-01T07:28:34;17.32;52.72
65985;HTU21D;52748;51.112;5.880;2023-03-01T07:31:06;17.32;52.46
65985;HTU21D;52748;51.112;5.880;2023-03-01T07:33:32;17.33;51.67
65985;HTU21D;52748;51.112;5.880;2023-03-01T07:36:00;17.34;51.46
65985;HTU21D;52748;51.112;5.880;2023-03-01T07:38:27;17.33;51.52
65985;HTU21D;52748;51.112;5.880;2023-03-01T07:40:59;17.34;51.46
65985;HTU21D;52748;51.112;5.880;2023-03-01T07:43:24;17.33;51.37
65985;HTU21D;52748;51.112;5.880;2023-03-01T07:45:50;17.35;51.26
65985;HTU21D;52748;51.112;5.880;2023-03-01T07:48:17;17.35;51.17
65985;HTU21D;52748;51.112;5.880;2023-03-01T07:50:43;17.36;51.04
65985;HTU21D;52748;51.112;5.880;2023-03-01T07:53:09;17.35;51.01
65985;HTU21D;52748;51.112;5.880;2023-03-01T07:55:36;17.36;50.90
65985;HTU21D;52748;51.112;5.880;2023-03-01T07:58:02;17.35;50.87
65985;HTU21D;52748;51.112;5.880;2023-03-01T08:00:28;17.36;50.83
65985;HTU21D;52748;51.112;5.880;2023-03-01T08:02:54;17.36;50.74
65985;HTU21D;52748;51.112;5.880;2023-03-01T08:05:20;17.36;50.67
65985;HTU21D;52748;51.112;5.880;2023-03-01T08:07:48;17.36;50.69
65985;HTU21D;52748;51.112;5.880;2023-03-01T08:10:13;17.39;50.68
65985;HTU21D;52748;51.112;5.880;2023-03-01T08:12:39;17.44;50.48
65985;HTU21D;52748;51.112;5.880;2023-03-01T08:15:05;17.46;50.35
65985;HTU21D;52748;51.112;5.880;2023-03-01T08:17:31;17.48;50.19
65985;HTU21D;52748;51.112;5.880;2023-03-01T08:19:57;17.48;50.14
65985;HTU21D;52748;51.112;5.880;2023-03-01T08:22:23;17.50;50.14
65985;HTU21D;52748;51.112;5.880;2023-03-01T08:24:49;17.50;50.18
65985;HTU21D;52748;51.112;5.880;2023-03-01T08:27:16;17.48;50.17
65985;HTU21D;52748;51.112;5.880;2023-03-01T08:29:42;17.45;49.91
65985;HTU21D;52748;51.112;5.880;2023-03-01T08:32:08;17.32;46.28
65985;HTU21D;52748;51.112;5.880;2023-03-01T08:34:34;17.10;46.20
65985;HTU21D;52748;51.112;5.880;2023-03-01T08:37:01;17.02;47.01
65985;HTU21D;52748;51.112;5.880;2023-03-01T08:39:27;17.04;47.05
65985;HTU21D;52748;51.112;5.880;2023-03-01T08:41:53;17.04;45.69
65985;HTU21D;52748;51.112;5.880;2023-03-01T08:44:19;16.92;45.48
65985;HTU21D;52748;51.112;5.880;2023-03-01T08:46:47;16.77;46.54
65985;HTU21D;52748;51.112;5.880;2023-03-01T08:49:19;16.65;47.65
65985;HTU21D;52748;51.112;5.880;2023-03-01T08:51:47;16.70;50.34
65985;HTU21D;52748;51.112;5.880;2023-03-01T08:54:16;16.91;51.12
65985;HTU21D;52748;51.112;5.880;2023-03-01T08:56:42;17.14;51.21
65985;HTU21D;52748;51.112;5.880;2023-03-01T08:59:10;17.28;51.01
65985;HTU21D;52748;51.112;5.880;2023-03-01T09:01:36;17.37;50.86
65985;HTU21D;52748;51.112;5.880;2023-03-01T09:04:03;17.46;50.79
65985;HTU21D;52748;51.112;5.880;2023-03-01T09:06:35;17.52;50.73
65985;HTU21D;52748;51.112;5.880;2023-03-01T09:09:02;17.58;50.75
65985;HTU21D;52748;51.112;5.880;2023-03-01T09:11:29;17.64;50.85
65985;HTU21D;52748;51.112;5.880;2023-03-01T09:13:55;17.72;51.08
65985;HTU21D;52748;51.112;5.880;2023-03-01T09:16:22;17.80;51.27
65985;HTU21D;52748;51.112;5.880;2023-03-01T09:18:53;17.92;51.15
65985;HTU21D;52748;51.112;5.880;2023-03-01T09:21:20;18.05;51.04
65985;HTU21D;52748;51.112;5.880;2023-03-01T09:23:49;18.18;50.91
65985;HTU21D;52748;51.112;5.880;2023-03-01T09:26:20;18.28;50.85
65985;HTU21D;52748;51.112;5.880;2023-03-01T09:28:49;18.38;50.78
65985;HTU21D;52748;51.112;5.880;2023-03-01T09:31:17;18.49;50.76
65985;HTU21D;52748;51.112;5.880;2023-03-01T09:33:46;18.54;50.65
65985;HTU21D;52748;51.112;5.880;2023-03-01T09:36:17;18.52;50.81
65985;HTU21D;52748;51.112;5.880;2023-03-01T09:38:43;18.53;51.11
65985;HTU21D;52748;51.112;5.880;2023-03-01T09:44:21;18.73;50.69
65985;HTU21D;52748;51.112;5.880;2023-03-01T09:46:51;18.81;50.34
65985;HTU21D;52748;51.112;5.880;2023-03-01T09:49:24;18.82;50.21
65985;HTU21D;52748;51.112;5.880;2023-03-01T09:54:54;18.80;50.43
65985;HTU21D;52748;51.112;5.880;2023-03-01T09:57:39;18.80;50.36
65985;HTU21D;52748;51.112;5.880;2023-03-01T10:00:41;18.79;50.22
65985;HTU21D;52748;51.112;5.880;2023-03-01T10:03:20;18.72;50.12
65985;HTU21D;52748;51.112;5.880;2023-03-01T10:08:40;18.62;49.76
65985;HTU21D;52748;51.112;5.880;2023-03-01T10:11:28;18.57;49.73
65985;HTU21D;52748;51.112;5.880;2023-03-01T10:16:40;18.48;49.63
65985;HTU21D;52748;51.112;5.880;2023-03-01T10:19:14;18.43;49.61
65985;HTU21D;52748;51.112;5.880;2023-03-01T10:21:45;18.41;49.56
65985;HTU21D;52748;51.112;5.880;2023-03-01T10:24:15;18.37;49.52
65985;HTU21D;52748;51.112;5.880;2023-03-01T10:26:54;18.37;49.34
65985;HTU21D;52748;51.112;5.880;2023-03-01T10:29:31;18.34;49.12
65985;HTU21D;52748;51.112;5.880;2023-03-01T10:32:00;18.33;49.05
65985;HTU21D;52748;51.112;5.880;2023-03-01T10:34:35;18.29;49.06
65985;HTU21D;52748;51.112;5.880;2023-03-01T10:39:34;18.25;48.99
65985;HTU21D;52748;51.112;5.880;2023-03-01T10:42:28;18.23;49.15
65985;HTU21D;52748;51.112;5.880;2023-03-01T10:44:54;18.22;49.06
65985;HTU21D;52748;51.112;5.880;2023-03-01T10:47:21;18.21;48.91
65985;HTU21D;52748;51.112;5.880;2023-03-01T10:50:20;18.18;48.72
65985;HTU21D;52748;51.112;5.880;2023-03-01T10:53:00;18.14;47.78
65985;HTU21D;52748;51.112;5.880;2023-03-01T10:55:40;18.07;48.66
65985;HTU21D;52748;51.112;5.880;2023-03-01T10:58:26;18.05;49.15
65985;HTU21D;52748;51.112;5.880;2023-03-01T11:05:54;17.95;49.90
65985;HTU21D;52748;51.112;5.880;2023-03-01T11:08:49;17.96;51.34
65985;HTU21D;52748;51.112;5.880;2023-03-01T11:11:25;17.96;51.58
65985;HTU21D;52748;51.112;5.880;2023-03-01T11:14:15;17.99;51.27
65985;HTU21D;52748;51.112;5.880;2023-03-01T11:16:45;17.97;51.00
65985;HTU21D;52748;51.112;5.880;2023-03-01T11:21:55;17.94;51.20
65985;HTU21D;52748;51.112;5.880;2023-03-01T11:24:31;17.95;51.49
65985;HTU21D;52748;51.112;5.880;2023-03-01T11:27:03;17.96;51.48
65985;HTU21D;52748;51.112;5.880;2023-03-01T11:29:44;18.02;51.34
65985;HTU21D;52748;51.112;5.880;2023-03-01T11:32:14;18.06;51.22
65985;HTU21D;52748;51.112;5.880;2023-03-01T11:34:49;18.10;51.05
65985;HTU21D;52748;51.112;5.880;2023-03-01T11:37:40;18.12;50.86
65985;HTU21D;52748;51.112;5.880;2023-03-01T11:54:27;18.22;49.27
65985;HTU21D;52748;51.112;5.880;2023-03-01T11:57:20;18.20;49.18
65985;HTU21D;52748;51.112;5.880;2023-03-01T12:03:28;18.14;48.57
65985;HTU21D;52748;51.112;5.880;2023-03-01T12:08:40;18.05;46.76
65985;HTU21D;52748;51.112;5.880;2023-03-01T12:11:20;17.99;46.38
65985;HTU21D;52748;51.112;5.880;2023-03-01T12:22:30;17.82;45.38
65985;HTU21D;52748;51.112;5.880;2023-03-01T12:25:15;17.79;45.21
65985;HTU21D;52748;51.112;5.880;2023-03-01T12:30:35;17.79;45.23
65985;HTU21D;52748;51.112;5.880;2023-03-01T12:38:49;17.78;45.68
65985;HTU21D;52748;51.112;5.880;2023-03-01T12:41:38;17.79;47.18
65985;HTU21D;52748;51.112;5.880;2023-03-01T12:44:22;17.82;48.15
65985;HTU21D;52748;51.112;5.880;2023-03-01T12:50:03;17.34;51.76
65985;HTU21D;52748;51.112;5.880;2023-03-01T12:52:42;17.34;52.78
65985;HTU21D;52748;51.112;5.880;2023-03-01T12:55:37;17.52;52.49
65985;HTU21D;52748;51.112;5.880;2023-03-01T12:58:26;17.69;52.11
65985;HTU21D;52748;51.112;5.880;2023-03-01T13:04:05;17.99;52.34
65985;HTU21D;52748;51.112;5.880;2023-03-01T13:06:53;18.17;52.24
65985;HTU21D;52748;51.112;5.880;2023-03-01T13:11:49;18.41;52.12
65985;HTU21D;52748;51.112;5.880;2023-03-01T13:17:00;18.54;51.92
65985;HTU21D;52748;51.112;5.880;2023-03-01T13:19:28;18.61;51.84
65985;HTU21D;52748;51.112;5.880;2023-03-01T13:21:55;18.64;51.61
65985;HTU21D;52748;51.112;5.880;2023-03-01T13:24:37;18.69;51.71
65985;HTU21D;52748;51.112;5.880;2023-03-01T13:29:53;18.84;51.95
65985;HTU21D;52748;51.112;5.880;2023-03-01T13:32:36;18.86;51.91
65985;HTU21D;52748;51.112;5.880;2023-03-01T13:37:41;18.94;52.18
65985;HTU21D;52748;51.112;5.880;2023-03-01T13:42:48;19.02;52.15
65985;HTU21D;52748;51.112;5.880;2023-03-01T13:47:58;19.08;52.01
65985;HTU21D;52748;51.112;5.880;2023-03-01T13:50:29;19.16;52.03
65985;HTU21D;52748;51.112;5.880;2023-03-01T13:52:59;19.22;52.18
65985;HTU21D;52748;51.112;5.880;2023-03-01T13:58:30;19.24;52.39
65985;HTU21D;52748;51.112;5.880;2023-03-01T14:01:01;19.20;52.54
65985;HTU21D;52748;51.112;5.880;2023-03-01T14:03:29;19.16;52.59
65985;HTU21D;52748;51.112;5.880;2023-03-01T14:06:06;19.14;52.58
65985;HTU21D;52748;51.112;5.880;2023-03-01T14:08:35;19.12;52.54
65985;HTU21D;52748;51.112;5.880;2023-03-01T14:14:10;19.08;52.49
65985;HTU21D;52748;51.112;5.880;2023-03-01T14:19:26;19.05;52.17
65985;HTU21D;52748;51.112;5.880;2023-03-01T14:22:20;19.02;52.04
65985;HTU21D;52748;51.112;5.880;2023-03-01T14:24:56;19.03;51.96
65985;HTU21D;52748;51.112;5.880;2023-03-01T14:27:27;19.02;51.86
65985;HTU21D;52748;51.112;5.880;2023-03-01T14:30:02;19.01;51.70
65985;HTU21D;52748;51.112;5.880;2023-03-01T14:32:30;19.01;51.66
65985;HTU21D;52748;51.112;5.880;2023-03-01T14:34:59;19.00;51.63
65985;HTU21D;52748;51.112;5.880;2023-03-01T14:37:29;18.95;51.76
65985;HTU21D;52748;51.112;5.880;2023-03-01T14:39:57;18.92;51.71
65985;HTU21D;52748;51.112;5.880;2023-03-01T14:42:28;18.88;51.64
65985;HTU21D;52748;51.112;5.880;2023-03-01T14:44:57;18.84;51.78
65985;HTU21D;52748;51.112;5.880;2023-03-01T14:47:30;18.81;51.98
65985;HTU21D;52748;51.112;5.880;2023-03-01T14:50:15;18.77;51.97
65985;HTU21D;52748;51.112;5.880;2023-03-01T14:52:47;18.71;52.01
65985;HTU21D;52748;51.112;5.880;2023-03-01T14:55:19;18.68;52.02
65985;HTU21D;52748;51.112;5.880;2023-03-01T14:57:51;18.65;52.20
65985;HTU21D;52748;51.112;5.880;2023-03-01T15:00:26;18.63;52.30
65985;HTU21D;52748;51.112;5.880;2023-03-01T15:02:55;18.63;52.11
65985;HTU21D;52748;51.112;5.880;2023-03-01T15:07:55;18.57;52.18
65985;HTU21D;52748;51.112;5.880;2023-03-01T15:10:26;18.57;52.07
65985;HTU21D;52748;51.112;5.880;2023-03-01T15:12:52;18.57;51.91
65985;HTU21D;52748;51.112;5.880;2023-03-01T15:20:45;18.46;52.20
65985;HTU21D;52748;51.112;5.880;2023-03-01T15:23:29;18.43;52.24
65985;HTU21D;52748;51.112;5.880;2023-03-01T15:25:56;18.41;52.36
65985;HTU21D;52748;51.112;5.880;2023-03-01T15:28:26;18.38;52.42
65985;HTU21D;52748;51.112;5.880;2023-03-01T15:31:20;18.38;52.48
65985;HTU21D;52748;51.112;5.880;2023-03-01T15:33:47;18.39;52.43
65985;HTU21D;52748;51.112;5.880;2023-03-01T15:39:02;18.42;52.40
65985;HTU21D;52748;51.112;5.880;2023-03-01T15:41:46;18.39;52.30
65985;HTU21D;52748;51.112;5.880;2023-03-01T15:44:23;18.35;52.49
65985;HTU21D;52748;51.112;5.880;2023-03-01T15:46:50;18.33;52.60
65985;HTU21D;52748;51.112;5.880;2023-03-01T15:51:57;18.28;52.97
65985;HTU21D;52748;51.112;5.880;2023-03-01T15:54:26;18.27;52.89
65985;HTU21D;52748;51.112;5.880;2023-03-01T15:56:52;18.26;52.88
65985;HTU21D;52748;51.112;5.880;2023-03-01T15:59:18;18.25;52.84
65985;HTU21D;52748;51.112;5.880;2023-03-01T16:01:45;18.25;52.59
65985;HTU21D;52748;51.112;5.880;2023-03-01T16:04:13;18.25;52.30
65985;HTU21D;52748;51.112;5.880;2023-03-01T16:06:54;18.24;52.04
65985;HTU21D;52748;51.112;5.880;2023-03-01T16:09:25;18.24;51.90
65985;HTU21D;52748;51.112;5.880;2023-03-01T16:11:52;18.23;51.66
65985;HTU21D;52748;51.112;5.880;2023-03-01T16:14:20;18.22;51.56
65985;HTU21D;52748;51.112;5.880;2023-03-01T16:16:47;18.21;51.28
65985;HTU21D;52748;51.112;5.880;2023-03-01T16:19:14;18.14;49.63
65985;HTU21D;52748;51.112;5.880;2023-03-01T16:21:41;18.11;50.39
65985;HTU21D;52748;51.112;5.880;2023-03-01T16:24:08;18.09;50.29
65985;HTU21D;52748;51.112;5.880;2023-03-01T16:26:35;18.14;50.10
65985;HTU21D;52748;51.112;5.880;2023-03-01T16:29:01;18.09;49.56
65985;HTU21D;52748;51.112;5.880;2023-03-01T16:31:27;18.06;49.23
65985;HTU21D;52748;51.112;5.880;2023-03-01T16:33:56;18.06;49.32
65985;HTU21D;52748;51.112;5.880;2023-03-01T16:36:24;18.07;49.20
65985;HTU21D;52748;51.112;5.880;2023-03-01T16:38:52;18.06;50.34
65985;HTU21D;52748;51.112;5.880;2023-03-01T16:41:20;18.05;51.34
65985;HTU21D;52748;51.112;5.880;2023-03-01T16:43:47;18.07;51.99
65985;HTU21D;52748;51.112;5.880;2023-03-01T16:46:19;18.08;52.43
65985;HTU21D;52748;51.112;5.880;2023-03-01T16:48:46;18.09;52.27
65985;HTU21D;52748;51.112;5.880;2023-03-01T16:51:12;18.06;53.58
65985;HTU21D;52748;51.112;5.880;2023-03-01T16:53:38;18.07;54.05
65985;HTU21D;52748;51.112;5.880;2023-03-01T16:56:07;18.07;54.44
65985;HTU21D;52748;51.112;5.880;2023-03-01T16:58:34;18.08;54.92
65985;HTU21D;52748;51.112;5.880;2023-03-01T17:01:14;18.09;55.20
65985;HTU21D;52748;51.112;5.880;2023-03-01T17:03:41;18.10;55.39
65985;HTU21D;52748;51.112;5.880;2023-03-01T17:06:11;18.09;55.52
65985;HTU21D;52748;51.112;5.880;2023-03-01T17:08:38;18.09;55.63
65985;HTU21D;52748;51.112;5.880;2023-03-01T17:11:13;18.10;55.68
65985;HTU21D;52748;51.112;5.880;2023-03-01T17:13:43;18.12;55.55
65985;HTU21D;52748;51.112;5.880;2023-03-01T17:16:12;18.13;55.50
65985;HTU21D;52748;51.112;5.880;2023-03-01T17:18:38;18.11;55.42
65985;HTU21D;52748;51.112;5.880;2023-03-01T17:21:06;18.11;55.35
65985;HTU21D;52748;51.112;5.880;2023-03-01T17:23:34;18.11;55.29
65985;HTU21D;52748;51.112;5.880;2023-03-01T17:26:01;18.10;55.29
65985;HTU21D;52748;51.112;5.880;2023-03-01T17:28:29;18.09;55.32